sensor_id;sensor_type;location;lat;lon;timestamp;P1;durP1;ratioP1;P2;durP2;ratioP2
8861;SDS011;4799;50.996;4.754;2023-01-30T00:02:14;28.27;;;24.00;;
8861;SDS011;4799;50.996;4.754;2023-01-30T00:04:40;28.57;;;25.10;;
8861;SDS011;4799;50.996;4.754;2023-01-30T00:07:06;28.77;;;24.77;;
8861;SDS011;4799;50.996;4.754;2023-01-30T00:09:31;28.13;;;25.13;;
8861;SDS011;4799;50.996;4.754;2023-01-30T00:11:57;29.73;;;25.23;;
8861;SDS011;4799;50.996;4.754;2023-01-30T00:14:23;29.90;;;25.40;;
8861;SDS011;4799;50.996;4.754;2023-01-30T00:16:49;29.37;;;25.30;;
8861;SDS011;4799;50.996;4.754;2023-01-30T00:19:14;28.87;;;25.20;;
8861;SDS011;4799;50.996;4.754;2023-01-30T00:21:40;29.67;;;26.40;;
8861;SDS011;4799;50.996;4.754;2023-01-30T00:24:06;28.87;;;24.87;;
8861;SDS011;4799;50.996;4.754;2023-01-30T00:26:32;30.47;;;26.53;;
8861;SDS011;4799;50.996;4.754;2023-01-30T00:28:57;30.37;;;26.13;;
8861;SDS011;4799;50.996;4.754;2023-01-30T00:31:23;28.73;;;25.70;;
8861;SDS011;4799;50.996;4.754;2023-01-30T00:33:49;30.63;;;25.80;;
8861;SDS011;4799;50.996;4.754;2023-01-30T00:36:14;28.73;;;25.50;;
8861;SDS011;4799;50.996;4.754;2023-01-30T00:38:40;30.50;;;25.37;;
8861;SDS011;4799;50.996;4.754;2023-01-30T00:41:06;32.83;;;25.87;;
8861;SDS011;4799;50.996;4.754;2023-01-30T00:43:32;31.23;;;25.93;;
8861;SDS011;4799;50.996;4.754;2023-01-30T00:46:28;29.63;;;26.53;;
8861;SDS011;4799;50.996;4.754;2023-01-30T00:49:13;29.50;;;25.60;;
8861;SDS011;4799;50.996;4.754;2023-01-30T00:51:39;30.13;;;26.37;;
8861;SDS011;4799;50.996;4.754;2023-01-30T00:54:05;29.27;;;26.07;;
8861;SDS011;4799;50.996;4.754;2023-01-30T00:56:31;30.37;;;25.53;;
8861;SDS011;4799;50.996;4.754;2023-01-30T00:58:57;30.37;;;27.10;;
8861;SDS011;4799;50.996;4.754;2023-01-30T01:01:22;30.77;;;26.10;;
8861;SDS011;4799;50.996;4.754;2023-01-30T01:03:48;30.07;;;25.93;;
8861;SDS011;4799;50.996;4.754;2023-01-30T01:06:14;30.27;;;26.27;;
8861;SDS011;4799;50.996;4.754;2023-01-30T01:08:40;30.87;;;25.70;;
8861;SDS011;4799;50.996;4.754;2023-01-30T01:11:05;31.47;;;26.17;;
8861;SDS011;4799;50.996;4.754;2023-01-30T01:13:31;29.77;;;25.23;;
8861;SDS011;4799;50.996;4.754;2023-01-30T01:15:57;29.33;;;25.00;;
8861;SDS011;4799;50.996;4.754;2023-01-30T01:18:23;30.93;;;26.63;;
8861;SDS011;4799;50.996;4.754;2023-01-30T01:20:48;30.43;;;26.63;;
8861;SDS011;4799;50.996;4.754;2023-01-30T01:23:14;30.40;;;26.20;;
8861;SDS011;4799;50.996;4.754;2023-01-30T01:25:40;30.97;;;26.30;;
8861;SDS011;4799;50.996;4.754;2023-01-30T01:28:05;30.60;;;25.37;;
8861;SDS011;4799;50.996;4.754;2023-01-30T01:30:31;30.00;;;25.50;;
8861;SDS011;4799;50.996;4.754;2023-01-30T01:32:57;28.47;;;25.33;;
8861;SDS011;4799;50.996;4.754;2023-01-30T01:35:23;27.73;;;24.73;;
8861;SDS011;4799;50.996;4.754;2023-01-30T01:37:51;28.87;;;24.93;;
8861;SDS011;4799;50.996;4.754;2023-01-30T01:40:19;26.63;;;23.80;;
8861;SDS011;4799;50.996;4.754;2023-01-30T01:43:14;27.70;;;24.17;;
8861;SDS011;4799;50.996;4.754;2023-01-30T01:45:42;28.27;;;25.10;;
8861;SDS011;4799;50.996;4.754;2023-01-30T01:48:11;26.70;;;23.90;;
8861;SDS011;4799;50.996;4.754;2023-01-30T01:50:45;25.87;;;23.00;;
8861;SDS011;4799;50.996;4.754;2023-01-30T01:53:22;27.80;;;24.07;;
8861;SDS011;4799;50.996;4.754;2023-01-30T01:55:51;26.33;;;23.50;;
8861;SDS011;4799;50.996;4.754;2023-01-30T02:01:15;29.43;;;23.93;;
8861;SDS011;4799;50.996;4.754;2023-01-30T02:03:42;25.03;;;22.33;;
8861;SDS011;4799;50.996;4.754;2023-01-30T02:06:11;26.30;;;23.50;;
8861;SDS011;4799;50.996;4.754;2023-01-30T02:09:01;26.10;;;23.13;;
8861;SDS011;4799;50.996;4.754;2023-01-30T02:14:15;25.77;;;21.93;;
8861;SDS011;4799;50.996;4.754;2023-01-30T02:16:43;25.77;;;22.13;;
8861;SDS011;4799;50.996;4.754;2023-01-30T02:22:27;25.17;;;22.07;;
8861;SDS011;4799;50.996;4.754;2023-01-30T02:36:14;24.20;;;21.63;;
8861;SDS011;4799;50.996;4.754;2023-01-30T02:39:12;25.27;;;21.93;;
8861;SDS011;4799;50.996;4.754;2023-01-30T02:41:42;23.90;;;20.67;;
8861;SDS011;4799;50.996;4.754;2023-01-30T02:44:29;23.83;;;21.27;;
8861;SDS011;4799;50.996;4.754;2023-01-30T02:47:03;21.30;;;19.00;;
8861;SDS011;4799;50.996;4.754;2023-01-30T02:49:35;23.37;;;20.17;;
8861;SDS011;4799;50.996;4.754;2023-01-30T02:52:04;22.47;;;19.70;;
8861;SDS011;4799;50.996;4.754;2023-01-30T02:54:33;22.97;;;20.20;;
8861;SDS011;4799;50.996;4.754;2023-01-30T02:56:59;21.93;;;19.10;;
8861;SDS011;4799;50.996;4.754;2023-01-30T02:59:29;22.07;;;19.67;;
8861;SDS011;4799;50.996;4.754;2023-01-30T03:09:50;21.30;;;19.07;;
8861;SDS011;4799;50.996;4.754;2023-01-30T03:12:35;21.30;;;19.07;;
8861;SDS011;4799;50.996;4.754;2023-01-30T03:15:09;20.40;;;18.23;;
8861;SDS011;4799;50.996;4.754;2023-01-30T03:17:43;22.00;;;19.30;;
8861;SDS011;4799;50.996;4.754;2023-01-30T03:20:11;21.83;;;18.90;;
8861;SDS011;4799;50.996;4.754;2023-01-30T03:22:38;24.83;;;18.97;;
8861;SDS011;4799;50.996;4.754;2023-01-30T03:25:04;23.63;;;17.93;;
8861;SDS011;4799;50.996;4.754;2023-01-30T03:27:30;21.63;;;18.70;;
8861;SDS011;4799;50.996;4.754;2023-01-30T03:29:58;22.77;;;18.30;;
8861;SDS011;4799;50.996;4.754;2023-01-30T03:32:24;20.67;;;17.83;;
8861;SDS011;4799;50.996;4.754;2023-01-30T03:34:49;22.43;;;18.73;;
8861;SDS011;4799;50.996;4.754;2023-01-30T03:37:15;23.10;;;18.07;;
8861;SDS011;4799;50.996;4.754;2023-01-30T03:39:41;19.77;;;17.37;;
8861;SDS011;4799;50.996;4.754;2023-01-30T03:42:07;19.67;;;17.07;;
8861;SDS011;4799;50.996;4.754;2023-01-30T03:44:32;19.50;;;16.13;;
8861;SDS011;4799;50.996;4.754;2023-01-30T03:46:58;19.27;;;17.33;;
8861;SDS011;4799;50.996;4.754;2023-01-30T03:49:24;19.73;;;16.43;;
8861;SDS011;4799;50.996;4.754;2023-01-30T03:51:50;21.37;;;16.97;;
8861;SDS011;4799;50.996;4.754;2023-01-30T03:54:15;19.60;;;17.57;;
8861;SDS011;4799;50.996;4.754;2023-01-30T03:56:41;20.27;;;17.67;;
8861;SDS011;4799;50.996;4.754;2023-01-30T03:59:07;23.47;;;18.30;;
8861;SDS011;4799;50.996;4.754;2023-01-30T04:01:33;26.37;;;18.83;;
8861;SDS011;4799;50.996;4.754;2023-01-30T04:03:59;22.80;;;19.37;;
8861;SDS011;4799;50.996;4.754;2023-01-30T04:06:24;25.83;;;20.37;;
8861;SDS011;4799;50.996;4.754;2023-01-30T04:08:53;28.67;;;21.33;;
8861;SDS011;4799;50.996;4.754;2023-01-30T04:11:19;24.37;;;20.27;;
8861;SDS011;4799;50.996;4.754;2023-01-30T04:13:45;27.07;;;20.77;;
8861;SDS011;4799;50.996;4.754;2023-01-30T04:16:24;28.37;;;22.10;;
8861;SDS011;4799;50.996;4.754;2023-01-30T04:18:51;30.93;;;21.93;;
8861;SDS011;4799;50.996;4.754;2023-01-30T04:21:17;30.37;;;22.30;;
8861;SDS011;4799;50.996;4.754;2023-01-30T04:23:43;31.90;;;24.07;;
8861;SDS011;4799;50.996;4.754;2023-01-30T04:26:09;28.90;;;22.20;;
8861;SDS011;4799;50.996;4.754;2023-01-30T04:28:35;28.40;;;22.63;;
8861;SDS011;4799;50.996;4.754;2023-01-30T04:31:01;26.67;;;22.30;;
8861;SDS011;4799;50.996;4.754;2023-01-30T04:33:28;29.83;;;22.90;;
8861;SDS011;4799;50.996;4.754;2023-01-30T04:35:54;27.33;;;21.93;;
8861;SDS011;4799;50.996;4.754;2023-01-30T04:38:22;28.37;;;22.63;;
8861;SDS011;4799;50.996;4.754;2023-01-30T04:40:50;26.23;;;20.93;;
8861;SDS011;4799;50.996;4.754;2023-01-30T04:43:17;29.97;;;21.87;;
8861;SDS011;4799;50.996;4.754;2023-01-30T04:45:44;24.77;;;21.03;;
8861;SDS011;4799;50.996;4.754;2023-01-30T04:48:11;25.37;;;21.30;;
8861;SDS011;4799;50.996;4.754;2023-01-30T04:50:40;27.17;;;21.27;;
8861;SDS011;4799;50.996;4.754;2023-01-30T04:53:07;27.40;;;21.13;;
8861;SDS011;4799;50.996;4.754;2023-01-30T04:55:34;27.30;;;20.70;;
8861;SDS011;4799;50.996;4.754;2023-01-30T04:57:59;23.97;;;19.73;;
8861;SDS011;4799;50.996;4.754;2023-01-30T05:00:25;25.07;;;20.10;;
8861;SDS011;4799;50.996;4.754;2023-01-30T05:02:51;23.77;;;19.87;;
8861;SDS011;4799;50.996;4.754;2023-01-30T05:05:20;30.23;;;20.77;;
8861;SDS011;4799;50.996;4.754;2023-01-30T05:07:46;22.70;;;19.90;;
8861;SDS011;4799;50.996;4.754;2023-01-30T05:10:12;22.03;;;18.90;;
8861;SDS011;4799;50.996;4.754;2023-01-30T05:12:37;22.10;;;19.47;;
8861;SDS011;4799;50.996;4.754;2023-01-30T05:15:03;25.43;;;19.67;;
8861;SDS011;4799;50.996;4.754;2023-01-30T05:17:31;21.73;;;18.10;;
8861;SDS011;4799;50.996;4.754;2023-01-30T05:19:57;24.63;;;18.53;;
8861;SDS011;4799;50.996;4.754;2023-01-30T05:22:23;24.47;;;18.20;;
8861;SDS011;4799;50.996;4.754;2023-01-30T05:24:48;23.77;;;18.60;;
8861;SDS011;4799;50.996;4.754;2023-01-30T05:27:14;21.33;;;17.87;;
8861;SDS011;4799;50.996;4.754;2023-01-30T05:29:40;24.13;;;17.30;;
8861;SDS011;4799;50.996;4.754;2023-01-30T05:32:06;20.50;;;16.43;;
8861;SDS011;4799;50.996;4.754;2023-01-30T05:34:31;19.20;;;17.03;;
8861;SDS011;4799;50.996;4.754;2023-01-30T05:36:57;19.87;;;16.33;;
8861;SDS011;4799;50.996;4.754;2023-01-30T05:39:23;22.23;;;16.77;;
8861;SDS011;4799;50.996;4.754;2023-01-30T05:41:49;20.67;;;16.47;;
8861;SDS011;4799;50.996;4.754;2023-01-30T05:44:14;18.83;;;16.17;;
8861;SDS011;4799;50.996;4.754;2023-01-30T05:46:40;23.63;;;16.27;;
8861;SDS011;4799;50.996;4.754;2023-01-30T05:49:06;21.30;;;16.87;;
8861;SDS011;4799;50.996;4.754;2023-01-30T05:51:32;20.57;;;16.17;;
8861;SDS011;4799;50.996;4.754;2023-01-30T05:53:57;21.10;;;16.70;;
8861;SDS011;4799;50.996;4.754;2023-01-30T05:56:23;19.87;;;16.50;;
8861;SDS011;4799;50.996;4.754;2023-01-30T05:58:53;17.40;;;15.13;;
8861;SDS011;4799;50.996;4.754;2023-01-30T06:01:20;18.97;;;15.80;;
8861;SDS011;4799;50.996;4.754;2023-01-30T06:03:47;19.30;;;15.87;;
8861;SDS011;4799;50.996;4.754;2023-01-30T06:06:13;18.10;;;15.10;;
8861;SDS011;4799;50.996;4.754;2023-01-30T06:08:39;21.60;;;15.53;;
8861;SDS011;4799;50.996;4.754;2023-01-30T06:11:06;21.43;;;15.97;;
8861;SDS011;4799;50.996;4.754;2023-01-30T06:13:34;22.70;;;16.33;;
8861;SDS011;4799;50.996;4.754;2023-01-30T06:16:01;19.57;;;15.43;;
8861;SDS011;4799;50.996;4.754;2023-01-30T06:18:27;22.50;;;15.20;;
8861;SDS011;4799;50.996;4.754;2023-01-30T06:20:53;19.03;;;15.30;;
8861;SDS011;4799;50.996;4.754;2023-01-30T06:23:19;17.50;;;14.83;;
8861;SDS011;4799;50.996;4.754;2023-01-30T06:25:48;19.73;;;15.67;;
8861;SDS011;4799;50.996;4.754;2023-01-30T06:28:14;21.60;;;15.53;;
8861;SDS011;4799;50.996;4.754;2023-01-30T06:30:41;18.07;;;15.30;;
8861;SDS011;4799;50.996;4.754;2023-01-30T06:33:07;18.87;;;14.93;;
8861;SDS011;4799;50.996;4.754;2023-01-30T06:35:33;18.37;;;15.07;;
8861;SDS011;4799;50.996;4.754;2023-01-30T06:38:02;17.70;;;15.80;;
8861;SDS011;4799;50.996;4.754;2023-01-30T06:40:27;19.10;;;16.10;;
8861;SDS011;4799;50.996;4.754;2023-01-30T06:42:53;20.37;;;16.10;;
8861;SDS011;4799;50.996;4.754;2023-01-30T06:45:19;17.93;;;14.37;;
8861;SDS011;4799;50.996;4.754;2023-01-30T06:47:52;19.30;;;15.50;;
8861;SDS011;4799;50.996;4.754;2023-01-30T06:50:19;16.57;;;14.40;;
8861;SDS011;4799;50.996;4.754;2023-01-30T06:52:47;20.30;;;15.27;;
8861;SDS011;4799;50.996;4.754;2023-01-30T06:55:15;21.40;;;14.77;;
8861;SDS011;4799;50.996;4.754;2023-01-30T06:57:42;22.87;;;14.90;;
8861;SDS011;4799;50.996;4.754;2023-01-30T07:00:12;18.30;;;14.57;;
8861;SDS011;4799;50.996;4.754;2023-01-30T07:02:43;20.23;;;16.10;;
8861;SDS011;4799;50.996;4.754;2023-01-30T07:05:10;22.10;;;15.40;;
8861;SDS011;4799;50.996;4.754;2023-01-30T07:07:36;21.60;;;15.43;;
8861;SDS011;4799;50.996;4.754;2023-01-30T07:10:03;20.00;;;14.67;;
8861;SDS011;4799;50.996;4.754;2023-01-30T07:12:30;19.87;;;14.70;;
8861;SDS011;4799;50.996;4.754;2023-01-30T07:14:56;21.27;;;14.67;;
8861;SDS011;4799;50.996;4.754;2023-01-30T07:17:22;20.80;;;15.20;;
8861;SDS011;4799;50.996;4.754;2023-01-30T07:19:48;22.40;;;15.40;;
8861;SDS011;4799;50.996;4.754;2023-01-30T07:22:14;20.07;;;15.30;;
8861;SDS011;4799;50.996;4.754;2023-01-30T07:24:40;22.97;;;15.47;;
8861;SDS011;4799;50.996;4.754;2023-01-30T07:27:09;17.53;;;14.60;;
8861;SDS011;4799;50.996;4.754;2023-01-30T07:29:37;21.23;;;14.43;;
8861;SDS011;4799;50.996;4.754;2023-01-30T07:32:04;17.90;;;14.70;;
8861;SDS011;4799;50.996;4.754;2023-01-30T07:34:30;20.67;;;14.40;;
8861;SDS011;4799;50.996;4.754;2023-01-30T07:36:56;20.40;;;15.27;;
8861;SDS011;4799;50.996;4.754;2023-01-30T07:39:22;21.27;;;14.67;;
8861;SDS011;4799;50.996;4.754;2023-01-30T07:41:48;22.07;;;14.80;;
8861;SDS011;4799;50.996;4.754;2023-01-30T07:44:14;22.13;;;13.80;;
8861;SDS011;4799;50.996;4.754;2023-01-30T07:46:40;21.17;;;13.20;;
8861;SDS011;4799;50.996;4.754;2023-01-30T07:49:06;20.07;;;13.20;;
8861;SDS011;4799;50.996;4.754;2023-01-30T07:51:33;19.43;;;13.17;;
8861;SDS011;4799;50.996;4.754;2023-01-30T07:53:59;19.13;;;12.47;;
8861;SDS011;4799;50.996;4.754;2023-01-30T07:56:28;17.60;;;12.07;;
8861;SDS011;4799;50.996;4.754;2023-01-30T07:58:54;18.20;;;12.07;;
8861;SDS011;4799;50.996;4.754;2023-01-30T08:01:20;17.00;;;10.50;;
8861;SDS011;4799;50.996;4.754;2023-01-30T08:03:46;17.53;;;11.33;;
8861;SDS011;4799;50.996;4.754;2023-01-30T08:06:13;19.30;;;10.73;;
8861;SDS011;4799;50.996;4.754;2023-01-30T08:08:40;17.97;;;9.03;;
8861;SDS011;4799;50.996;4.754;2023-01-30T08:11:06;15.33;;;8.17;;
8861;SDS011;4799;50.996;4.754;2023-01-30T08:13:31;16.93;;;8.70;;
8861;SDS011;4799;50.996;4.754;2023-01-30T08:15:59;12.37;;;7.27;;
8861;SDS011;4799;50.996;4.754;2023-01-30T08:18:29;15.90;;;7.70;;
8861;SDS011;4799;50.996;4.754;2023-01-30T08:20:57;15.40;;;6.20;;
8861;SDS011;4799;50.996;4.754;2023-01-30T08:23:26;13.40;;;6.27;;
8861;SDS011;4799;50.996;4.754;2023-01-30T08:25:56;15.17;;;6.17;;
8861;SDS011;4799;50.996;4.754;2023-01-30T08:28:24;14.93;;;6.53;;
8861;SDS011;4799;50.996;4.754;2023-01-30T08:30:50;17.83;;;5.93;;
8861;SDS011;4799;50.996;4.754;2023-01-30T08:33:17;14.57;;;5.63;;
8861;SDS011;4799;50.996;4.754;2023-01-30T08:35:43;14.07;;;5.20;;
8861;SDS011;4799;50.996;4.754;2023-01-30T08:38:09;13.70;;;5.47;;
8861;SDS011;4799;50.996;4.754;2023-01-30T08:40:36;14.97;;;5.70;;
8861;SDS011;4799;50.996;4.754;2023-01-30T08:43:02;11.80;;;5.33;;
8861;SDS011;4799;50.996;4.754;2023-01-30T08:45:28;12.07;;;5.70;;
8861;SDS011;4799;50.996;4.754;2023-01-30T08:47:58;12.67;;;5.37;;
8861;SDS011;4799;50.996;4.754;2023-01-30T08:50:28;15.57;;;6.57;;
8861;SDS011;4799;50.996;4.754;2023-01-30T08:52:54;18.37;;;6.33;;
8861;SDS011;4799;50.996;4.754;2023-01-30T08:55:21;15.40;;;6.50;;
8861;SDS011;4799;50.996;4.754;2023-01-30T08:57:47;15.90;;;6.47;;
8861;SDS011;4799;50.996;4.754;2023-01-30T09:00:13;15.10;;;6.40;;
8861;SDS011;4799;50.996;4.754;2023-01-30T09:02:40;14.27;;;6.53;;
8861;SDS011;4799;50.996;4.754;2023-01-30T09:05:06;15.97;;;5.97;;
8861;SDS011;4799;50.996;4.754;2023-01-30T09:07:32;12.27;;;6.00;;
8861;SDS011;4799;50.996;4.754;2023-01-30T09:09:59;13.57;;;5.20;;
8861;SDS011;4799;50.996;4.754;2023-01-30T09:12:24;15.50;;;5.60;;
8861;SDS011;4799;50.996;4.754;2023-01-30T09:14:50;13.07;;;4.57;;
8861;SDS011;4799;50.996;4.754;2023-01-30T09:17:22;15.23;;;4.77;;
8861;SDS011;4799;50.996;4.754;2023-01-30T09:19:48;11.70;;;4.37;;
8861;SDS011;4799;50.996;4.754;2023-01-30T09:22:14;11.77;;;4.60;;
8861;SDS011;4799;50.996;4.754;2023-01-30T09:24:41;15.77;;;4.80;;
8861;SDS011;4799;50.996;4.754;2023-01-30T09:27:07;23.60;;;4.77;;
8861;SDS011;4799;50.996;4.754;2023-01-30T09:29:33;11.90;;;3.90;;
8861;SDS011;4799;50.996;4.754;2023-01-30T09:31:58;14.37;;;3.90;;
8861;SDS011;4799;50.996;4.754;2023-01-30T09:34:24;12.00;;;3.80;;
8861;SDS011;4799;50.996;4.754;2023-01-30T09:36:55;14.17;;;3.97;;
8861;SDS011;4799;50.996;4.754;2023-01-30T09:39:24;17.07;;;4.27;;
8861;SDS011;4799;50.996;4.754;2023-01-30T09:56:08;15.63;;;3.87;;
8861;SDS011;4799;50.996;4.754;2023-01-30T09:58:46;17.30;;;4.23;;
8861;SDS011;4799;50.996;4.754;2023-01-30T10:01:20;13.70;;;3.97;;
8861;SDS011;4799;50.996;4.754;2023-01-30T10:06:58;8.23;;;3.27;;
8861;SDS011;4799;50.996;4.754;2023-01-30T10:18:07;16.97;;;3.87;;
8861;SDS011;4799;50.996;4.754;2023-01-30T10:26:35;13.20;;;3.67;;
8861;SDS011;4799;50.996;4.754;2023-01-30T10:29:05;13.17;;;3.23;;
8861;SDS011;4799;50.996;4.754;2023-01-30T10:32:28;15.00;;;3.83;;
8861;SDS011;4799;50.996;4.754;2023-01-30T10:34:39;13.53;;;3.90;;
8861;SDS011;4799;50.996;4.754;2023-01-30T10:39:53;13.13;;;3.40;;
8861;SDS011;4799;50.996;4.754;2023-01-30T10:42:43;17.13;;;4.20;;
8861;SDS011;4799;50.996;4.754;2023-01-30T10:51:04;12.57;;;3.53;;
8861;SDS011;4799;50.996;4.754;2023-01-30T10:53:50;10.53;;;3.07;;
8861;SDS011;4799;50.996;4.754;2023-01-30T10:56:34;10.57;;;3.17;;
8861;SDS011;4799;50.996;4.754;2023-01-30T11:01:54;11.73;;;3.60;;
8861;SDS011;4799;50.996;4.754;2023-01-30T11:04:30;14.67;;;3.67;;
8861;SDS011;4799;50.996;4.754;2023-01-30T11:06:59;13.40;;;3.83;;
8861;SDS011;4799;50.996;4.754;2023-01-30T11:09:43;11.07;;;2.97;;
8861;SDS011;4799;50.996;4.754;2023-01-30T11:12:10;9.70;;;3.20;;
8861;SDS011;4799;50.996;4.754;2023-01-30T11:17:35;14.43;;;3.77;;
8861;SDS011;4799;50.996;4.754;2023-01-30T11:20:13;11.40;;;3.13;;
8861;SDS011;4799;50.996;4.754;2023-01-30T11:22:49;13.17;;;3.60;;
8861;SDS011;4799;50.996;4.754;2023-01-30T11:25:20;11.67;;;3.40;;
8861;SDS011;4799;50.996;4.754;2023-01-30T11:28:11;13.67;;;3.60;;
8861;SDS011;4799;50.996;4.754;2023-01-30T11:30:37;12.50;;;2.80;;
8861;SDS011;4799;50.996;4.754;2023-01-30T11:36:04;10.77;;;2.97;;
8861;SDS011;4799;50.996;4.754;2023-01-30T11:38:31;12.27;;;3.07;;
8861;SDS011;4799;50.996;4.754;2023-01-30T11:43:34;13.67;;;3.50;;
8861;SDS011;4799;50.996;4.754;2023-01-30T11:46:04;13.47;;;3.87;;
8861;SDS011;4799;50.996;4.754;2023-01-30T11:48:32;11.27;;;3.20;;
8861;SDS011;4799;50.996;4.754;2023-01-30T11:51:05;14.57;;;3.20;;
8861;SDS011;4799;50.996;4.754;2023-01-30T11:53:46;12.37;;;3.40;;
8861;SDS011;4799;50.996;4.754;2023-01-30T11:56:31;14.00;;;3.77;;
8861;SDS011;4799;50.996;4.754;2023-01-30T11:58:58;13.23;;;3.53;;
8861;SDS011;4799;50.996;4.754;2023-01-30T12:01:32;13.63;;;3.63;;
8861;SDS011;4799;50.996;4.754;2023-01-30T12:04:00;12.37;;;3.37;;
8861;SDS011;4799;50.996;4.754;2023-01-30T12:06:36;13.43;;;3.57;;
8861;SDS011;4799;50.996;4.754;2023-01-30T12:09:03;11.87;;;3.17;;
8861;SDS011;4799;50.996;4.754;2023-01-30T12:19:42;12.47;;;3.53;;
8861;SDS011;4799;50.996;4.754;2023-01-30T12:22:33;9.47;;;2.67;;
8861;SDS011;4799;50.996;4.754;2023-01-30T12:25:02;12.23;;;3.07;;
8861;SDS011;4799;50.996;4.754;2023-01-30T12:30:29;10.67;;;3.40;;
8861;SDS011;4799;50.996;4.754;2023-01-30T12:33:28;12.30;;;3.63;;
8861;SDS011;4799;50.996;4.754;2023-01-30T12:46:54;14.30;;;3.67;;
8861;SDS011;4799;50.996;4.754;2023-01-30T12:52:41;13.83;;;3.97;;
8861;SDS011;4799;50.996;4.754;2023-01-30T12:58:03;14.10;;;3.33;;
8861;SDS011;4799;50.996;4.754;2023-01-30T13:08:51;11.60;;;3.33;;
8861;SDS011;4799;50.996;4.754;2023-01-30T13:14:29;14.60;;;3.60;;
8861;SDS011;4799;50.996;4.754;2023-01-30T13:20:00;16.57;;;3.70;;
8861;SDS011;4799;50.996;4.754;2023-01-30T13:28:24;12.30;;;3.50;;
8861;SDS011;4799;50.996;4.754;2023-01-30T13:30:53;11.23;;;3.43;;
8861;SDS011;4799;50.996;4.754;2023-01-30T13:33:30;13.83;;;3.90;;
8861;SDS011;4799;50.996;4.754;2023-01-30T13:39:03;13.30;;;3.13;;
8861;SDS011;4799;50.996;4.754;2023-01-30T13:41:36;12.83;;;3.57;;
8861;SDS011;4799;50.996;4.754;2023-01-30T13:44:19;10.73;;;3.57;;
8861;SDS011;4799;50.996;4.754;2023-01-30T13:46:49;11.93;;;3.40;;
8861;SDS011;4799;50.996;4.754;2023-01-30T14:00:00;12.23;;;3.47;;
8861;SDS011;4799;50.996;4.754;2023-01-30T14:02:28;12.87;;;3.63;;
8861;SDS011;4799;50.996;4.754;2023-01-30T14:04:55;14.67;;;4.20;;
8861;SDS011;4799;50.996;4.754;2023-01-30T14:07:31;12.33;;;3.70;;
8861;SDS011;4799;50.996;4.754;2023-01-30T14:12:42;13.20;;;3.73;;
8861;SDS011;4799;50.996;4.754;2023-01-30T14:20:46;13.50;;;3.70;;
8861;SDS011;4799;50.996;4.754;2023-01-30T14:25:57;20.47;;;4.13;;
8861;SDS011;4799;50.996;4.754;2023-01-30T14:30:52;15.47;;;3.57;;
8861;SDS011;4799;50.996;4.754;2023-01-30T14:38:28;11.97;;;3.67;;
8861;SDS011;4799;50.996;4.754;2023-01-30T14:46:00;16.97;;;4.23;;
8861;SDS011;4799;50.996;4.754;2023-01-30T14:48:27;13.27;;;3.60;;
8861;SDS011;4799;50.996;4.754;2023-01-30T14:53:54;13.67;;;3.70;;
8861;SDS011;4799;50.996;4.754;2023-01-30T15:04:20;13.03;;;3.63;;
8861;SDS011;4799;50.996;4.754;2023-01-30T15:06:46;14.20;;;3.97;;
8861;SDS011;4799;50.996;4.754;2023-01-30T15:09:17;18.43;;;3.97;;
8861;SDS011;4799;50.996;4.754;2023-01-30T15:11:49;11.03;;;3.30;;
8861;SDS011;4799;50.996;4.754;2023-01-30T15:14:31;15.63;;;3.83;;
8861;SDS011;4799;50.996;4.754;2023-01-30T15:25:37;13.60;;;3.50;;
8861;SDS011;4799;50.996;4.754;2023-01-30T15:31:26;16.80;;;4.43;;
8861;SDS011;4799;50.996;4.754;2023-01-30T15:33:53;11.47;;;3.50;;
8861;SDS011;4799;50.996;4.754;2023-01-30T15:36:27;12.40;;;3.63;;
8861;SDS011;4799;50.996;4.754;2023-01-30T15:39:02;13.37;;;3.43;;
8861;SDS011;4799;50.996;4.754;2023-01-30T15:41:36;12.60;;;3.53;;
8861;SDS011;4799;50.996;4.754;2023-01-30T15:44:16;10.57;;;3.60;;
8861;SDS011;4799;50.996;4.754;2023-01-30T15:47:17;15.23;;;3.90;;
8861;SDS011;4799;50.996;4.754;2023-01-30T15:50:08;13.00;;;4.03;;
8861;SDS011;4799;50.996;4.754;2023-01-30T15:52:47;14.83;;;3.73;;
8861;SDS011;4799;50.996;4.754;2023-01-30T15:55:16;12.60;;;3.53;;
8861;SDS011;4799;50.996;4.754;2023-01-30T15:58:08;17.23;;;4.17;;
8861;SDS011;4799;50.996;4.754;2023-01-30T16:00:48;16.87;;;4.30;;
8861;SDS011;4799;50.996;4.754;2023-01-30T16:03:31;12.20;;;3.77;;
8861;SDS011;4799;50.996;4.754;2023-01-30T16:06:03;15.17;;;4.30;;
8861;SDS011;4799;50.996;4.754;2023-01-30T16:08:30;13.70;;;4.00;;
8861;SDS011;4799;50.996;4.754;2023-01-30T16:10:57;13.20;;;3.97;;
8861;SDS011;4799;50.996;4.754;2023-01-30T16:13:29;13.00;;;3.53;;
8861;SDS011;4799;50.996;4.754;2023-01-30T16:16:02;13.70;;;3.97;;
8861;SDS011;4799;50.996;4.754;2023-01-30T16:18:42;17.07;;;3.73;;
8861;SDS011;4799;50.996;4.754;2023-01-30T16:21:17;15.17;;;3.70;;
8861;SDS011;4799;50.996;4.754;2023-01-30T16:24:02;13.43;;;3.57;;
8861;SDS011;4799;50.996;4.754;2023-01-30T16:26:31;15.10;;;3.90;;
8861;SDS011;4799;50.996;4.754;2023-01-30T16:29:00;13.27;;;3.53;;
8861;SDS011;4799;50.996;4.754;2023-01-30T16:31:33;12.47;;;3.90;;
8861;SDS011;4799;50.996;4.754;2023-01-30T16:34:03;14.57;;;4.00;;
8861;SDS011;4799;50.996;4.754;2023-01-30T16:36:37;11.43;;;3.23;;
8861;SDS011;4799;50.996;4.754;2023-01-30T16:39:21;13.27;;;3.60;;
8861;SDS011;4799;50.996;4.754;2023-01-30T16:41:53;13.27;;;3.77;;
8861;SDS011;4799;50.996;4.754;2023-01-30T16:44:21;15.63;;;3.87;;
8861;SDS011;4799;50.996;4.754;2023-01-30T16:52:02;12.60;;;4.03;;
8861;SDS011;4799;50.996;4.754;2023-01-30T16:54:50;11.30;;;3.83;;
8861;SDS011;4799;50.996;4.754;2023-01-30T16:57:29;13.07;;;4.10;;
8861;SDS011;4799;50.996;4.754;2023-01-30T17:00:06;11.70;;;3.90;;
8861;SDS011;4799;50.996;4.754;2023-01-30T17:02:49;12.60;;;4.30;;
8861;SDS011;4799;50.996;4.754;2023-01-30T17:05:20;15.07;;;4.50;;
8861;SDS011;4799;50.996;4.754;2023-01-30T17:07:50;15.27;;;4.30;;
8861;SDS011;4799;50.996;4.754;2023-01-30T17:13:48;14.27;;;4.93;;
8861;SDS011;4799;50.996;4.754;2023-01-30T17:16:18;12.53;;;4.70;;
8861;SDS011;4799;50.996;4.754;2023-01-30T17:18:58;13.60;;;4.57;;
8861;SDS011;4799;50.996;4.754;2023-01-30T17:21:26;14.87;;;4.90;;
8861;SDS011;4799;50.996;4.754;2023-01-30T17:23:57;14.30;;;4.60;;
8861;SDS011;4799;50.996;4.754;2023-01-30T17:26:30;16.53;;;5.07;;
8861;SDS011;4799;50.996;4.754;2023-01-30T17:28:57;18.10;;;4.57;;
8861;SDS011;4799;50.996;4.754;2023-01-30T17:31:23;12.40;;;4.50;;
8861;SDS011;4799;50.996;4.754;2023-01-30T17:33:50;19.77;;;5.33;;
8861;SDS011;4799;50.996;4.754;2023-01-30T17:36:34;15.27;;;4.77;;
8861;SDS011;4799;50.996;4.754;2023-01-30T17:38:59;13.73;;;4.57;;
8861;SDS011;4799;50.996;4.754;2023-01-30T17:41:26;14.67;;;4.80;;
8861;SDS011;4799;50.996;4.754;2023-01-30T17:43:57;12.50;;;4.20;;
8861;SDS011;4799;50.996;4.754;2023-01-30T17:46:26;16.83;;;4.70;;
8861;SDS011;4799;50.996;4.754;2023-01-30T17:49:16;15.23;;;5.00;;
8861;SDS011;4799;50.996;4.754;2023-01-30T17:51:44;18.13;;;5.93;;
8861;SDS011;4799;50.996;4.754;2023-01-30T17:54:10;15.13;;;4.67;;
8861;SDS011;4799;50.996;4.754;2023-01-30T17:56:37;11.17;;;4.40;;
8861;SDS011;4799;50.996;4.754;2023-01-30T17:59:12;15.73;;;4.77;;
8861;SDS011;4799;50.996;4.754;2023-01-30T18:01:40;15.93;;;4.20;;
8861;SDS011;4799;50.996;4.754;2023-01-30T18:04:06;16.80;;;4.97;;
8861;SDS011;4799;50.996;4.754;2023-01-30T18:06:33;16.87;;;5.07;;
8861;SDS011;4799;50.996;4.754;2023-01-30T18:08:59;13.60;;;4.57;;
8861;SDS011;4799;50.996;4.754;2023-01-30T18:11:25;15.80;;;5.17;;
8861;SDS011;4799;50.996;4.754;2023-01-30T18:13:51;13.53;;;5.47;;
8861;SDS011;4799;50.996;4.754;2023-01-30T18:16:24;17.03;;;4.87;;
8861;SDS011;4799;50.996;4.754;2023-01-30T18:18:55;14.60;;;4.80;;
8861;SDS011;4799;50.996;4.754;2023-01-30T18:21:27;17.50;;;5.50;;
8861;SDS011;4799;50.996;4.754;2023-01-30T18:23:54;17.00;;;5.20;;
8861;SDS011;4799;50.996;4.754;2023-01-30T18:26:19;16.20;;;5.67;;
8861;SDS011;4799;50.996;4.754;2023-01-30T18:28:45;17.57;;;6.83;;